sensor_id;sensor_type;location;lat;lon;timestamp;P1;durP1;ratioP1;P2;durP2;ratioP2
61960;SDS011;47923;42.506;24.192;2023-04-01T00:01:59;25.52;;;16.13;;
61960;SDS011;47923;42.506;24.192;2023-04-01T00:04:25;21.80;;;13.73;;
61960;SDS011;47923;42.506;24.192;2023-04-01T00:06:50;23.77;;;15.32;;
61960;SDS011;47923;42.506;24.192;2023-04-01T00:09:16;21.88;;;14.85;;
61960;SDS011;47923;42.506;24.192;2023-04-01T00:11:42;21.02;;;13.77;;
61960;SDS011;47923;42.506;24.192;2023-04-01T00:14:09;38.30;;;28.77;;
61960;SDS011;47923;42.506;24.192;2023-04-01T00:16:35;38.30;;;24.50;;
61960;SDS011;47923;42.506;24.192;2023-04-01T00:19:00;32.60;;;21.27;;
61960;SDS011;47923;42.506;24.192;2023-04-01T00:21:26;31.45;;;20.35;;
61960;SDS011;47923;42.506;24.192;2023-04-01T00:23:52;27.23;;;19.50;;
61960;SDS011;47923;42.506;24.192;2023-04-01T00:26:17;27.25;;;18.80;;
61960;SDS011;47923;42.506;24.192;2023-04-01T00:28:44;23.42;;;14.77;;
61960;SDS011;47923;42.506;24.192;2023-04-01T00:31:10;22.70;;;13.95;;
61960;SDS011;47923;42.506;24.192;2023-04-01T00:33:37;22.85;;;12.55;;
61960;SDS011;47923;42.506;24.192;2023-04-01T00:38:32;19.52;;;12.43;;
61960;SDS011;47923;42.506;24.192;2023-04-01T00:40:57;19.05;;;11.25;;
61960;SDS011;47923;42.506;24.192;2023-04-01T00:43:23;17.75;;;10.50;;
61960;SDS011;47923;42.506;24.192;2023-04-01T00:45:49;14.50;;;9.02;;
61960;SDS011;47923;42.506;24.192;2023-04-01T00:48:15;14.48;;;8.10;;
61960;SDS011;47923;42.506;24.192;2023-04-01T00:50:44;15.18;;;8.57;;
61960;SDS011;47923;42.506;24.192;2023-04-01T00:53:13;22.90;;;13.65;;
61960;SDS011;47923;42.506;24.192;2023-04-01T00:55:41;32.03;;;21.20;;
61960;SDS011;47923;42.506;24.192;2023-04-01T00:58:11;30.08;;;20.40;;
61960;SDS011;47923;42.506;24.192;2023-04-01T01:00:39;24.63;;;17.25;;
61960;SDS011;47923;42.506;24.192;2023-04-01T01:03:05;26.63;;;17.00;;
61960;SDS011;47923;42.506;24.192;2023-04-01T01:05:44;35.28;;;25.05;;
61960;SDS011;47923;42.506;24.192;2023-04-01T01:11:06;24.83;;;18.17;;
61960;SDS011;47923;42.506;24.192;2023-04-01T01:13:41;24.67;;;16.00;;
61960;SDS011;47923;42.506;24.192;2023-04-01T01:16:21;24.52;;;16.75;;
61960;SDS011;47923;42.506;24.192;2023-04-01T01:18:57;21.33;;;14.25;;
61960;SDS011;47923;42.506;24.192;2023-04-01T01:21:49;18.50;;;10.77;;
61960;SDS011;47923;42.506;24.192;2023-04-01T01:37:50;17.20;;;11.05;;
61960;SDS011;47923;42.506;24.192;2023-04-01T01:40:19;17.65;;;10.63;;
61960;SDS011;47923;42.506;24.192;2023-04-01T01:42:47;17.35;;;10.70;;
61960;SDS011;47923;42.506;24.192;2023-04-01T01:45:16;19.23;;;13.32;;
61960;SDS011;47923;42.506;24.192;2023-04-01T01:47:44;23.65;;;14.77;;
61960;SDS011;47923;42.506;24.192;2023-04-01T01:50:11;22.38;;;15.23;;
61960;SDS011;47923;42.506;24.192;2023-04-01T01:52:37;24.83;;;14.95;;
61960;SDS011;47923;42.506;24.192;2023-04-01T01:55:03;24.08;;;17.13;;
61960;SDS011;47923;42.506;24.192;2023-04-01T01:57:48;22.33;;;13.90;;
61960;SDS011;47923;42.506;24.192;2023-04-01T02:00:14;24.45;;;14.80;;
61960;SDS011;47923;42.506;24.192;2023-04-01T02:02:42;20.73;;;12.00;;
61960;SDS011;47923;42.506;24.192;2023-04-01T02:05:11;18.70;;;11.63;;
61960;SDS011;47923;42.506;24.192;2023-04-01T02:07:42;22.00;;;14.30;;
61960;SDS011;47923;42.506;24.192;2023-04-01T02:10:12;19.85;;;12.55;;
61960;SDS011;47923;42.506;24.192;2023-04-01T02:12:38;20.63;;;13.60;;
61960;SDS011;47923;42.506;24.192;2023-04-01T02:15:10;29.58;;;18.10;;
61960;SDS011;47923;42.506;24.192;2023-04-01T02:17:40;24.48;;;16.13;;
61960;SDS011;47923;42.506;24.192;2023-04-01T02:22:41;21.48;;;14.45;;
61960;SDS011;47923;42.506;24.192;2023-04-01T02:25:11;21.73;;;13.95;;
61960;SDS011;47923;42.506;24.192;2023-04-01T02:27:40;23.60;;;15.23;;
61960;SDS011;47923;42.506;24.192;2023-04-01T02:30:08;26.00;;;14.73;;
61960;SDS011;47923;42.506;24.192;2023-04-01T02:32:34;22.60;;;16.27;;
61960;SDS011;47923;42.506;24.192;2023-04-01T02:35:04;21.70;;;13.85;;
61960;SDS011;47923;42.506;24.192;2023-04-01T02:37:31;22.80;;;14.55;;
61960;SDS011;47923;42.506;24.192;2023-04-01T02:40:01;23.45;;;15.90;;
61960;SDS011;47923;42.506;24.192;2023-04-01T02:42:31;29.15;;;18.50;;
61960;SDS011;47923;42.506;24.192;2023-04-01T02:44:57;28.23;;;19.45;;
61960;SDS011;47923;42.506;24.192;2023-04-01T02:47:22;26.20;;;19.45;;
61960;SDS011;47923;42.506;24.192;2023-04-01T02:49:47;25.60;;;19.08;;
61960;SDS011;47923;42.506;24.192;2023-04-01T02:52:13;25.83;;;20.15;;
61960;SDS011;47923;42.506;24.192;2023-04-01T02:54:38;26.40;;;17.98;;
61960;SDS011;47923;42.506;24.192;2023-04-01T02:57:04;25.65;;;17.13;;
61960;SDS011;47923;42.506;24.192;2023-04-01T02:59:29;29.52;;;20.65;;
61960;SDS011;47923;42.506;24.192;2023-04-01T03:01:55;26.98;;;17.15;;
61960;SDS011;47923;42.506;24.192;2023-04-01T03:04:20;27.88;;;19.13;;
61960;SDS011;47923;42.506;24.192;2023-04-01T03:06:46;26.42;;;18.63;;
61960;SDS011;47923;42.506;24.192;2023-04-01T03:09:11;27.92;;;15.93;;
61960;SDS011;47923;42.506;24.192;2023-04-01T03:11:36;29.73;;;19.13;;
61960;SDS011;47923;42.506;24.192;2023-04-01T03:14:02;29.38;;;20.52;;
61960;SDS011;47923;42.506;24.192;2023-04-01T03:16:27;26.15;;;18.92;;
61960;SDS011;47923;42.506;24.192;2023-04-01T03:18:53;28.42;;;21.05;;
61960;SDS011;47923;42.506;24.192;2023-04-01T03:21:22;29.05;;;19.85;;
61960;SDS011;47923;42.506;24.192;2023-04-01T03:23:48;30.85;;;21.55;;
61960;SDS011;47923;42.506;24.192;2023-04-01T03:26:15;29.75;;;20.65;;
61960;SDS011;47923;42.506;24.192;2023-04-01T03:28:40;36.33;;;22.02;;
61960;SDS011;47923;42.506;24.192;2023-04-01T03:31:06;74.05;;;52.83;;
61960;SDS011;47923;42.506;24.192;2023-04-01T03:33:32;41.13;;;27.67;;
61960;SDS011;47923;42.506;24.192;2023-04-01T03:35:57;35.55;;;21.15;;
61960;SDS011;47923;42.506;24.192;2023-04-01T03:38:23;32.55;;;20.05;;
61960;SDS011;47923;42.506;24.192;2023-04-01T03:40:49;48.97;;;27.50;;
61960;SDS011;47923;42.506;24.192;2023-04-01T03:43:14;23.35;;;15.27;;
61960;SDS011;47923;42.506;24.192;2023-04-01T03:45:48;22.00;;;14.73;;
61960;SDS011;47923;42.506;24.192;2023-04-01T03:48:14;46.47;;;25.70;;
61960;SDS011;47923;42.506;24.192;2023-04-01T03:50:41;36.30;;;22.58;;
61960;SDS011;47923;42.506;24.192;2023-04-01T03:53:06;42.22;;;24.23;;
61960;SDS011;47923;42.506;24.192;2023-04-01T03:55:32;40.00;;;23.67;;
61960;SDS011;47923;42.506;24.192;2023-04-01T03:57:57;28.50;;;18.95;;
61960;SDS011;47923;42.506;24.192;2023-04-01T04:00:23;35.95;;;20.83;;
61960;SDS011;47923;42.506;24.192;2023-04-01T04:02:48;54.22;;;34.10;;
61960;SDS011;47923;42.506;24.192;2023-04-01T04:05:14;48.00;;;33.15;;
61960;SDS011;47923;42.506;24.192;2023-04-01T04:07:40;37.40;;;26.73;;
61960;SDS011;47923;42.506;24.192;2023-04-01T04:10:05;46.15;;;33.72;;
61960;SDS011;47923;42.506;24.192;2023-04-01T04:12:31;31.95;;;21.33;;
61960;SDS011;47923;42.506;24.192;2023-04-01T04:14:57;25.63;;;18.67;;
61960;SDS011;47923;42.506;24.192;2023-04-01T04:17:22;26.38;;;18.15;;
61960;SDS011;47923;42.506;24.192;2023-04-01T04:19:48;29.95;;;21.58;;
61960;SDS011;47923;42.506;24.192;2023-04-01T04:22:13;34.97;;;23.85;;
61960;SDS011;47923;42.506;24.192;2023-04-01T04:24:39;29.88;;;21.33;;
61960;SDS011;47923;42.506;24.192;2023-04-01T04:27:04;28.65;;;21.17;;
61960;SDS011;47923;42.506;24.192;2023-04-01T04:29:30;52.80;;;34.95;;
61960;SDS011;47923;42.506;24.192;2023-04-01T04:31:56;49.30;;;32.80;;
61960;SDS011;47923;42.506;24.192;2023-04-01T04:34:21;37.97;;;26.70;;
61960;SDS011;47923;42.506;24.192;2023-04-01T04:36:47;35.05;;;23.70;;
61960;SDS011;47923;42.506;24.192;2023-04-01T04:39:14;50.28;;;30.98;;
61960;SDS011;47923;42.506;24.192;2023-04-01T04:41:40;46.92;;;28.75;;
61960;SDS011;47923;42.506;24.192;2023-04-01T04:44:06;39.30;;;22.08;;
61960;SDS011;47923;42.506;24.192;2023-04-01T04:46:31;30.33;;;17.60;;
61960;SDS011;47923;42.506;24.192;2023-04-01T04:48:57;50.60;;;25.05;;
61960;SDS011;47923;42.506;24.192;2023-04-01T04:51:22;49.42;;;30.27;;
61960;SDS011;47923;42.506;24.192;2023-04-01T04:53:48;49.22;;;33.65;;
61960;SDS011;47923;42.506;24.192;2023-04-01T04:56:21;31.02;;;22.25;;
61960;SDS011;47923;42.506;24.192;2023-04-01T04:58:47;35.92;;;24.90;;
61960;SDS011;47923;42.506;24.192;2023-04-01T05:01:14;31.25;;;22.65;;
61960;SDS011;47923;42.506;24.192;2023-04-01T05:03:41;34.90;;;22.50;;
61960;SDS011;47923;42.506;24.192;2023-04-01T05:06:07;29.95;;;21.90;;
61960;SDS011;47923;42.506;24.192;2023-04-01T05:08:34;31.67;;;22.27;;
61960;SDS011;47923;42.506;24.192;2023-04-01T05:11:01;32.03;;;23.13;;
61960;SDS011;47923;42.506;24.192;2023-04-01T05:13:27;29.75;;;20.30;;
61960;SDS011;47923;42.506;24.192;2023-04-01T05:15:53;46.80;;;31.98;;
61960;SDS011;47923;42.506;24.192;2023-04-01T05:18:19;34.35;;;23.75;;
61960;SDS011;47923;42.506;24.192;2023-04-01T05:20:48;52.92;;;32.95;;
61960;SDS011;47923;42.506;24.192;2023-04-01T05:23:15;61.42;;;40.42;;
61960;SDS011;47923;42.506;24.192;2023-04-01T05:25:42;55.00;;;35.13;;
61960;SDS011;47923;42.506;24.192;2023-04-01T05:28:07;48.63;;;31.20;;
61960;SDS011;47923;42.506;24.192;2023-04-01T05:30:33;38.03;;;25.50;;
61960;SDS011;47923;42.506;24.192;2023-04-01T05:32:59;28.80;;;18.75;;
61960;SDS011;47923;42.506;24.192;2023-04-01T05:35:25;28.70;;;18.95;;
61960;SDS011;47923;42.506;24.192;2023-04-01T05:37:50;39.05;;;27.05;;
61960;SDS011;47923;42.506;24.192;2023-04-01T05:40:15;41.30;;;28.55;;
61960;SDS011;47923;42.506;24.192;2023-04-01T05:42:41;43.92;;;31.73;;
61960;SDS011;47923;42.506;24.192;2023-04-01T05:45:07;47.53;;;36.42;;
61960;SDS011;47923;42.506;24.192;2023-04-01T05:47:33;44.75;;;30.48;;
61960;SDS011;47923;42.506;24.192;2023-04-01T05:49:59;36.28;;;27.08;;
61960;SDS011;47923;42.506;24.192;2023-04-01T05:52:24;31.73;;;21.85;;
61960;SDS011;47923;42.506;24.192;2023-04-01T05:54:50;34.55;;;22.58;;
61960;SDS011;47923;42.506;24.192;2023-04-01T05:57:16;31.70;;;21.30;;
61960;SDS011;47923;42.506;24.192;2023-04-01T05:59:41;31.73;;;20.38;;
61960;SDS011;47923;42.506;24.192;2023-04-01T06:02:08;32.45;;;20.73;;
61960;SDS011;47923;42.506;24.192;2023-04-01T06:04:37;30.27;;;18.92;;
61960;SDS011;47923;42.506;24.192;2023-04-01T06:07:14;27.85;;;19.02;;
61960;SDS011;47923;42.506;24.192;2023-04-01T06:09:41;22.52;;;14.57;;
61960;SDS011;47923;42.506;24.192;2023-04-01T06:17:26;24.35;;;15.68;;
61960;SDS011;47923;42.506;24.192;2023-04-01T06:20:10;30.30;;;20.55;;
61960;SDS011;47923;42.506;24.192;2023-04-01T06:33:20;41.85;;;35.33;;
61960;SDS011;47923;42.506;24.192;2023-04-01T06:50:11;14.30;;;9.65;;
61960;SDS011;47923;42.506;24.192;2023-04-01T06:55:17;17.90;;;10.15;;
61960;SDS011;47923;42.506;24.192;2023-04-01T06:57:50;12.80;;;7.72;;
61960;SDS011;47923;42.506;24.192;2023-04-01T07:00:33;15.48;;;10.27;;
61960;SDS011;47923;42.506;24.192;2023-04-01T07:03:05;14.98;;;8.75;;
61960;SDS011;47923;42.506;24.192;2023-04-01T07:05:34;14.35;;;9.13;;
61960;SDS011;47923;42.506;24.192;2023-04-01T07:08:08;10.85;;;6.45;;
61960;SDS011;47923;42.506;24.192;2023-04-01T07:10:48;11.68;;;7.80;;
61960;SDS011;47923;42.506;24.192;2023-04-01T07:13:29;11.68;;;7.50;;
61960;SDS011;47923;42.506;24.192;2023-04-01T07:16:05;11.80;;;8.13;;
61960;SDS011;47923;42.506;24.192;2023-04-01T07:18:39;12.18;;;7.40;;
61960;SDS011;47923;42.506;24.192;2023-04-01T07:21:14;11.88;;;7.22;;
61960;SDS011;47923;42.506;24.192;2023-04-01T07:23:47;16.67;;;7.97;;
61960;SDS011;47923;42.506;24.192;2023-04-01T07:26:17;11.20;;;6.82;;
61960;SDS011;47923;42.506;24.192;2023-04-01T07:28:45;13.65;;;5.93;;
61960;SDS011;47923;42.506;24.192;2023-04-01T07:34:01;11.43;;;6.40;;
61960;SDS011;47923;42.506;24.192;2023-04-01T07:44:59;8.82;;;5.13;;
61960;SDS011;47923;42.506;24.192;2023-04-01T07:47:39;9.65;;;4.70;;
61960;SDS011;47923;42.506;24.192;2023-04-01T08:03:30;12.38;;;6.10;;
61960;SDS011;47923;42.506;24.192;2023-04-01T08:08:59;11.18;;;5.60;;
61960;SDS011;47923;42.506;24.192;2023-04-01T08:11:30;12.85;;;6.70;;
61960;SDS011;47923;42.506;24.192;2023-04-01T08:14:14;10.50;;;6.13;;
61960;SDS011;47923;42.506;24.192;2023-04-01T08:22:23;10.93;;;6.13;;
61960;SDS011;47923;42.506;24.192;2023-04-01T08:24:54;11.88;;;6.20;;
61960;SDS011;47923;42.506;24.192;2023-04-01T08:27:27;9.88;;;6.10;;
61960;SDS011;47923;42.506;24.192;2023-04-01T08:30:03;11.18;;;6.28;;
61960;SDS011;47923;42.506;24.192;2023-04-01T08:32:42;13.32;;;6.75;;
61960;SDS011;47923;42.506;24.192;2023-04-01T08:37:57;10.20;;;5.45;;
61960;SDS011;47923;42.506;24.192;2023-04-01T08:45:44;9.50;;;4.72;;
61960;SDS011;47923;42.506;24.192;2023-04-01T09:02:14;22.08;;;13.40;;
61960;SDS011;47923;42.506;24.192;2023-04-01T09:05:18;12.60;;;6.65;;
61960;SDS011;47923;42.506;24.192;2023-04-01T09:07:57;12.98;;;7.70;;
61960;SDS011;47923;42.506;24.192;2023-04-01T09:10:37;11.90;;;4.90;;
61960;SDS011;47923;42.506;24.192;2023-04-01T09:18:24;10.65;;;5.82;;
61960;SDS011;47923;42.506;24.192;2023-04-01T09:21:32;12.68;;;7.80;;
61960;SDS011;47923;42.506;24.192;2023-04-01T09:24:15;10.40;;;4.65;;
61960;SDS011;47923;42.506;24.192;2023-04-01T09:35:46;14.82;;;5.70;;
61960;SDS011;47923;42.506;24.192;2023-04-01T09:40:58;8.70;;;4.38;;
61960;SDS011;47923;42.506;24.192;2023-04-01T09:46:16;11.57;;;6.28;;
61960;SDS011;47923;42.506;24.192;2023-04-01T10:10:47;10.70;;;5.97;;
61960;SDS011;47923;42.506;24.192;2023-04-01T10:40:37;9.82;;;4.95;;
61960;SDS011;47923;42.506;24.192;2023-04-01T11:23:28;12.27;;;4.43;;
61960;SDS011;47923;42.506;24.192;2023-04-01T11:26:17;9.38;;;5.18;;
61960;SDS011;47923;42.506;24.192;2023-04-01T11:43:21;10.95;;;5.18;;
61960;SDS011;47923;42.506;24.192;2023-04-01T11:46:07;10.13;;;4.55;;
61960;SDS011;47923;42.506;24.192;2023-04-01T11:51:24;9.68;;;4.50;;
61960;SDS011;47923;42.506;24.192;2023-04-01T12:10:20;13.50;;;7.78;;
61960;SDS011;47923;42.506;24.192;2023-04-01T12:15:35;31.88;;;22.65;;
61960;SDS011;47923;42.506;24.192;2023-04-01T12:21:17;10.95;;;5.20;;
61960;SDS011;47923;42.506;24.192;2023-04-01T12:26:30;7.35;;;3.88;;
61960;SDS011;47923;42.506;24.192;2023-04-01T12:32:15;19.48;;;10.45;;
61960;SDS011;47923;42.506;24.192;2023-04-01T12:35:00;12.98;;;7.38;;
61960;SDS011;47923;42.506;24.192;2023-04-01T12:46:27;15.45;;;8.52;;
61960;SDS011;47923;42.506;24.192;2023-04-01T12:51:58;17.05;;;9.73;;
61960;SDS011;47923;42.506;24.192;2023-04-01T13:14:18;12.53;;;8.17;;
61960;SDS011;47923;42.506;24.192;2023-04-01T13:17:20;9.88;;;5.90;;
61960;SDS011;47923;42.506;24.192;2023-04-01T13:25:46;11.73;;;6.28;;
61960;SDS011;47923;42.506;24.192;2023-04-01T13:28:28;10.68;;;6.05;;
61960;SDS011;47923;42.506;24.192;2023-04-01T13:34:20;12.23;;;6.50;;
61960;SDS011;47923;42.506;24.192;2023-04-01T13:36:52;13.70;;;6.63;;
61960;SDS011;47923;42.506;24.192;2023-04-01T13:44:55;12.32;;;7.38;;
61960;SDS011;47923;42.506;24.192;2023-04-01T13:47:32;13.50;;;7.55;;
61960;SDS011;47923;42.506;24.192;2023-04-01T14:07:00;7.53;;;3.67;;
61960;SDS011;47923;42.506;24.192;2023-04-01T14:10:18;2.90;;;1.70;;
61960;SDS011;47923;42.506;24.192;2023-04-01T14:12:44;5.82;;;2.90;;
61960;SDS011;47923;42.506;24.192;2023-04-01T14:32:11;7.80;;;3.78;;
61960;SDS011;47923;42.506;24.192;2023-04-01T14:45:46;29.65;;;21.95;;
61960;SDS011;47923;42.506;24.192;2023-04-01T14:48:24;30.88;;;20.65;;
61960;SDS011;47923;42.506;24.192;2023-04-01T14:51:04;20.23;;;13.57;;
61960;SDS011;47923;42.506;24.192;2023-04-01T14:53:42;13.35;;;8.18;;
61960;SDS011;47923;42.506;24.192;2023-04-01T14:56:10;8.23;;;4.13;;
61960;SDS011;47923;42.506;24.192;2023-04-01T15:01:20;14.10;;;7.82;;
61960;SDS011;47923;42.506;24.192;2023-04-01T15:17:50;20.05;;;12.20;;
61960;SDS011;47923;42.506;24.192;2023-04-01T15:20:44;16.85;;;8.73;;
61960;SDS011;47923;42.506;24.192;2023-04-01T15:23:34;14.55;;;8.88;;
61960;SDS011;47923;42.506;24.192;2023-04-01T15:26:31;12.27;;;6.95;;
61960;SDS011;47923;42.506;24.192;2023-04-01T15:29:07;15.85;;;9.00;;
61960;SDS011;47923;42.506;24.192;2023-04-01T15:31:54;13.43;;;8.02;;
61960;SDS011;47923;42.506;24.192;2023-04-01T15:40:15;11.00;;;5.20;;
61960;SDS011;47923;42.506;24.192;2023-04-01T15:50:52;8.18;;;4.50;;
61960;SDS011;47923;42.506;24.192;2023-04-01T15:53:34;9.43;;;4.40;;
61960;SDS011;47923;42.506;24.192;2023-04-01T15:56:19;8.77;;;4.47;;
61960;SDS011;47923;42.506;24.192;2023-04-01T15:59:01;7.93;;;4.93;;
61960;SDS011;47923;42.506;24.192;2023-04-01T16:04:32;11.80;;;5.30;;
61960;SDS011;47923;42.506;24.192;2023-04-01T16:10:24;10.25;;;5.07;;
61960;SDS011;47923;42.506;24.192;2023-04-01T16:16:05;11.30;;;7.15;;
61960;SDS011;47923;42.506;24.192;2023-04-01T16:18:42;17.70;;;12.30;;
61960;SDS011;47923;42.506;24.192;2023-04-01T16:24:04;27.45;;;18.17;;
61960;SDS011;47923;42.506;24.192;2023-04-01T16:29:35;24.58;;;18.55;;
61960;SDS011;47923;42.506;24.192;2023-04-01T16:38:09;28.52;;;17.75;;
61960;SDS011;47923;42.506;24.192;2023-04-01T16:49:13;30.38;;;17.77;;
61960;SDS011;47923;42.506;24.192;2023-04-01T17:00:15;7.20;;;2.80;;
61960;SDS011;47923;42.506;24.192;2023-04-01T17:24:55;9.25;;;3.78;;
61960;SDS011;47923;42.506;24.192;2023-04-01T17:48:08;10.38;;;3.90;;
61960;SDS011;47923;42.506;24.192;2023-04-01T17:55:41;8.35;;;4.20;;
61960;SDS011;47923;42.506;24.192;2023-04-01T18:06:03;10.90;;;5.47;;
61960;SDS011;47923;42.506;24.192;2023-04-01T18:11:34;6.85;;;3.85;;
61960;SDS011;47923;42.506;24.192;2023-04-01T18:17:12;9.48;;;4.53;;
61960;SDS011;47923;42.506;24.192;2023-04-01T18:25:05;5.90;;;3.03;;
61960;SDS011;47923;42.506;24.192;2023-04-01T18:27:38;6.25;;;3.50;;
61960;SDS011;47923;42.506;24.192;2023-04-01T18:30:11;5.97;;;2.90;;
61960;SDS011;47923;42.506;24.192;2023-04-01T18:32:56;4.47;;;2.17;;
61960;SDS011;47923;42.506;24.192;2023-04-01T18:35:34;5.10;;;2.70;;
61960;SDS011;47923;42.506;24.192;2023-04-01T18:38:15;5.43;;;2.70;;
61960;SDS011;47923;42.506;24.192;2023-04-01T18:41:01;3.88;;;2.15;;
61960;SDS011;47923;42.506;24.192;2023-04-01T18:46:49;4.85;;;2.40;;
61960;SDS011;47923;42.506;24.192;2023-04-01T18:52:33;6.50;;;2.95;;
61960;SDS011;47923;42.506;24.192;2023-04-01T19:03:12;6.70;;;2.28;;
61960;SDS011;47923;42.506;24.192;2023-04-01T19:05:46;3.83;;;2.33;;
61960;SDS011;47923;42.506;24.192;2023-04-01T19:13:56;4.03;;;2.20;;
61960;SDS011;47923;42.506;24.192;2023-04-01T19:25:02;3.58;;;2.25;;
61960;SDS011;47923;42.506;24.192;2023-04-01T19:27:41;7.20;;;3.58;;
61960;SDS011;47923;42.506;24.192;2023-04-01T19:38:53;6.20;;;2.63;;
61960;SDS011;47923;42.506;24.192;2023-04-01T19:46:55;5.55;;;2.45;;
61960;SDS011;47923;42.506;24.192;2023-04-01T20:00:26;6.60;;;3.40;;
61960;SDS011;47923;42.506;24.192;2023-04-01T20:05:59;9.05;;;2.70;;
61960;SDS011;47923;42.506;24.192;2023-04-01T20:25:15;3.70;;;2.28;;
61960;SDS011;47923;42.506;24.192;2023-04-01T20:27:54;3.53;;;2.15;;
61960;SDS011;47923;42.506;24.192;2023-04-01T20:30:55;4.80;;;2.38;;
61960;SDS011;47923;42.506;24.192;2023-04-01T20:35:48;4.63;;;2.40;;
61960;SDS011;47923;42.506;24.192;2023-04-01T20:41:26;4.65;;;2.42;;
61960;SDS011;47923;42.506;24.192;2023-04-01T20:57:31;4.82;;;2.70;;
61960;SDS011;47923;42.506;24.192;2023-04-01T21:00:26;3.65;;;2.25;;
61960;SDS011;47923;42.506;24.192;2023-04-01T21:08:33;7.25;;;2.70;;
61960;SDS011;47923;42.506;24.192;2023-04-01T21:13:45;5.32;;;2.97;;
61960;SDS011;47923;42.506;24.192;2023-04-01T21:25:11;4.22;;;2.28;;
61960;SDS011;47923;42.506;24.192;2023-04-01T21:33:30;4.07;;;2.30;;
61960;SDS011;47923;42.506;24.192;2023-04-01T21:58:42;4.15;;;2.00;;
61960;SDS011;47923;42.506;24.192;2023-04-01T22:01:41;3.45;;;2.15;;
61960;SDS011;47923;42.506;24.192;2023-04-01T22:06:56;4.60;;;2.45;;
61960;SDS011;47923;42.506;24.192;2023-04-01T22:17:17;4.82;;;2.30;;
61960;SDS011;47923;42.506;24.192;2023-04-01T22:20:16;5.13;;;2.20;;
61960;SDS011;47923;42.506;24.192;2023-04-01T22:22:59;4.30;;;2.08;;
61960;SDS011;47923;42.506;24.192;2023-04-01T22:28:16;5.40;;;2.58;;
61960;SDS011;47923;42.506;24.192;2023-04-01T22:38:41;5.85;;;2.65;;
61960;SDS011;47923;42.506;24.192;2023-04-01T22:44:36;3.53;;;1.80;;
61960;SDS011;47923;42.506;24.192;2023-04-01T22:47:28;4.47;;;2.03;;
61960;SDS011;47923;42.506;24.192;2023-04-01T22:50:20;3.90;;;1.90;;
61960;SDS011;47923;42.506;24.192;2023-04-01T22:52:55;5.07;;;2.20;;
61960;SDS011;47923;42.506;24.192;2023-04-01T22:55:32;5.22;;;2.38;;
61960;SDS011;47923;42.506;24.192;2023-04-01T22:58:04;4.70;;;2.17;;
61960;SDS011;47923;42.506;24.192;2023-04-01T23:03:08;2.60;;;1.60;;
61960;SDS011;47923;42.506;24.192;2023-04-01T23:05:42;3.28;;;1.65;;
61960;SDS011;47923;42.506;24.192;2023-04-01T23:11:06;3.58;;;1.70;;
61960;SDS011;47923;42.506;24.192;2023-04-01T23:16:40;3.03;;;1.58;;
61960;SDS011;47923;42.506;24.192;2023-04-01T23:19:19;3.92;;;1.90;;
61960;SDS011;47923;42.506;24.192;2023-04-01T23:22:16;3.13;;;1.70;;
61960;SDS011;47923;42.506;24.192;2023-04-01T23:27:30;3.95;;;2.00;;
61960;SDS011;47923;42.506;24.192;2023-04-01T23:30:02;3.65;;;1.60;;
61960;SDS011;47923;42.506;24.192;2023-04-01T23:32:28;6.38;;;2.10;;
61960;SDS011;47923;42.506;24.192;2023-04-01T23:34:58;4.13;;;2.30;;
61960;SDS011;47923;42.506;24.192;2023-04-01T23:37:25;5.38;;;2.90;;
61960;SDS011;47923;42.506;24.192;2023-04-01T23:39:56;6.40;;;2.83;;
61960;SDS011;47923;42.506;24.192;2023-04-01T23:42:24;5.75;;;2.80;;
61960;SDS011;47923;42.506;24.192;2023-04-01T23:44:53;6.00;;;2.72;;
61960;SDS011;47923;42.506;24.192;2023-04-01T23:47:32;6.50;;;2.58;;
61960;SDS011;47923;42.506;24.192;2023-04-01T23:52:36;6.43;;;3.38;;
61960;SDS011;47923;42.506;24.192;2023-04-01T23:55:39;5.95;;;2.67;;
